sensor_id;sensor_type;location;lat;lon;timestamp;temperature;humidity
37108;DHT22;23019;49.300;6.846;2022-09-30T00:01:06;22.60;99.90
37108;DHT22;23019;49.300;6.846;2022-09-30T00:03:06;22.60;99.90
37108;DHT22;23019;49.300;6.846;2022-09-30T00:05:10;22.60;99.90
37108;DHT22;23019;49.300;6.846;2022-09-30T00:07:11;22.60;99.90
37108;DHT22;23019;49.300;6.846;2022-09-30T00:09:12;22.60;99.90
37108;DHT22;23019;49.300;6.846;2022-09-30T00:11:18;22.60;99.90
37108;DHT22;23019;49.300;6.846;2022-09-30T00:13:19;22.50;99.90
37108;DHT22;23019;49.300;6.846;2022-09-30T00:15:19;22.50;99.90
37108;DHT22;23019;49.300;6.846;2022-09-30T00:17:20;22.50;99.90
37108;DHT22;23019;49.300;6.846;2022-09-30T00:19:21;22.50;99.90
37108;DHT22;23019;49.300;6.846;2022-09-30T00:21:22;22.50;99.90
37108;DHT22;23019;49.300;6.846;2022-09-30T00:23:24;22.50;99.90
37108;DHT22;23019;49.300;6.846;2022-09-30T00:25:25;22.40;99.90
37108;DHT22;23019;49.300;6.846;2022-09-30T00:27:25;22.40;99.90
37108;DHT22;23019;49.300;6.846;2022-09-30T00:29:26;22.40;99.90
37108;DHT22;23019;49.300;6.846;2022-09-30T00:31:31;22.40;99.90
37108;DHT22;23019;49.300;6.846;2022-09-30T00:33:33;22.40;99.90
37108;DHT22;23019;49.300;6.846;2022-09-30T00:35:35;22.40;99.90
37108;DHT22;23019;49.300;6.846;2022-09-30T00:37:36;22.40;99.90
37108;DHT22;23019;49.300;6.846;2022-09-30T00:39:37;22.40;99.90
37108;DHT22;23019;49.300;6.846;2022-09-30T00:41:40;22.30;99.90
37108;DHT22;23019;49.300;6.846;2022-09-30T00:43:46;22.30;99.90
37108;DHT22;23019;49.300;6.846;2022-09-30T00:45:57;22.30;99.90
37108;DHT22;23019;49.300;6.846;2022-09-30T00:53:59;22.30;99.90
37108;DHT22;23019;49.300;6.846;2022-09-30T00:56:30;22.30;99.90
37108;DHT22;23019;49.300;6.846;2022-09-30T00:58:53;22.30;99.90
37108;DHT22;23019;49.300;6.846;2022-09-30T01:00:58;22.30;99.90
37108;DHT22;23019;49.300;6.846;2022-09-30T01:06:19;22.20;99.90
37108;DHT22;23019;49.300;6.846;2022-09-30T01:12:34;22.20;99.90
37108;DHT22;23019;49.300;6.846;2022-09-30T01:45:54;22.10;99.90
37108;DHT22;23019;49.300;6.846;2022-09-30T01:51:14;22.00;99.90
37108;DHT22;23019;49.300;6.846;2022-09-30T01:56:48;22.00;99.90
37108;DHT22;23019;49.300;6.846;2022-09-30T01:59:19;22.00;99.90
37108;DHT22;23019;49.300;6.846;2022-09-30T02:11:17;22.00;99.90
37108;DHT22;23019;49.300;6.846;2022-09-30T02:13:48;21.90;99.90
37108;DHT22;23019;49.300;6.846;2022-09-30T02:19:42;21.90;99.90
37108;DHT22;23019;49.300;6.846;2022-09-30T02:25:22;21.90;99.90
37108;DHT22;23019;49.300;6.846;2022-09-30T02:35:04;21.90;99.90
37108;DHT22;23019;49.300;6.846;2022-09-30T02:44:20;21.80;99.90
37108;DHT22;23019;49.300;6.846;2022-09-30T02:59:05;21.80;99.90
37108;DHT22;23019;49.300;6.846;2022-09-30T03:01:50;21.80;99.90
37108;DHT22;23019;49.300;6.846;2022-09-30T03:05:05;21.80;99.90
37108;DHT22;23019;49.300;6.846;2022-09-30T03:07:33;21.70;99.90
37108;DHT22;23019;49.300;6.846;2022-09-30T03:09:42;21.80;99.90
37108;DHT22;23019;49.300;6.846;2022-09-30T03:12:05;21.70;99.90
37108;DHT22;23019;49.300;6.846;2022-09-30T03:47:00;21.60;99.90
37108;DHT22;23019;49.300;6.846;2022-09-30T03:52:23;21.60;99.90
37108;DHT22;23019;49.300;6.846;2022-09-30T03:57:17;21.60;99.90
37108;DHT22;23019;49.300;6.846;2022-09-30T03:59:25;21.60;99.90
37108;DHT22;23019;49.300;6.846;2022-09-30T04:15:08;21.60;99.90
37108;DHT22;23019;49.300;6.846;2022-09-30T04:24:01;21.60;99.90
37108;DHT22;23019;49.300;6.846;2022-09-30T04:26:11;21.60;99.90
37108;DHT22;23019;49.300;6.846;2022-09-30T04:28:14;21.50;99.90
37108;DHT22;23019;49.300;6.846;2022-09-30T04:30:28;21.50;99.90
37108;DHT22;23019;49.300;6.846;2022-09-30T04:33:03;21.50;99.90
37108;DHT22;23019;49.300;6.846;2022-09-30T04:35:12;21.50;99.90
37108;DHT22;23019;49.300;6.846;2022-09-30T04:37:48;21.50;99.90
37108;DHT22;23019;49.300;6.846;2022-09-30T04:40:21;21.50;99.90
37108;DHT22;23019;49.300;6.846;2022-09-30T04:42:27;21.50;99.90
37108;DHT22;23019;49.300;6.846;2022-09-30T04:44:36;21.50;99.90
37108;DHT22;23019;49.300;6.846;2022-09-30T04:47:00;21.50;99.90
37108;DHT22;23019;49.300;6.846;2022-09-30T04:49:15;21.50;99.90
37108;DHT22;23019;49.300;6.846;2022-09-30T04:51:38;21.40;99.90
37108;DHT22;23019;49.300;6.846;2022-09-30T04:53:52;21.40;99.90
37108;DHT22;23019;49.300;6.846;2022-09-30T04:56:40;21.50;99.90
37108;DHT22;23019;49.300;6.846;2022-09-30T04:58:46;21.50;99.90
37108;DHT22;23019;49.300;6.846;2022-09-30T05:01:08;21.40;99.90
37108;DHT22;23019;49.300;6.846;2022-09-30T05:03:12;21.40;99.90
37108;DHT22;23019;49.300;6.846;2022-09-30T05:05:25;21.40;99.90
37108;DHT22;23019;49.300;6.846;2022-09-30T05:07:34;21.40;99.90
37108;DHT22;23019;49.300;6.846;2022-09-30T05:09:38;21.40;99.90
37108;DHT22;23019;49.300;6.846;2022-09-30T05:11:57;21.40;99.90
37108;DHT22;23019;49.300;6.846;2022-09-30T05:14:34;21.40;99.90
37108;DHT22;23019;49.300;6.846;2022-09-30T05:16:40;21.40;99.90
37108;DHT22;23019;49.300;6.846;2022-09-30T05:18:43;21.30;99.90
37108;DHT22;23019;49.300;6.846;2022-09-30T05:20:51;21.30;99.90
37108;DHT22;23019;49.300;6.846;2022-09-30T05:23:00;21.40;99.90
37108;DHT22;23019;49.300;6.846;2022-09-30T05:25:01;21.30;99.90
37108;DHT22;23019;49.300;6.846;2022-09-30T05:27:06;21.30;99.90
37108;DHT22;23019;49.300;6.846;2022-09-30T05:29:09;21.30;99.90
37108;DHT22;23019;49.300;6.846;2022-09-30T05:31:10;21.30;99.90
37108;DHT22;23019;49.300;6.846;2022-09-30T05:33:13;21.30;99.90
37108;DHT22;23019;49.300;6.846;2022-09-30T05:35:19;21.30;99.90
37108;DHT22;23019;49.300;6.846;2022-09-30T05:37:22;21.30;99.90
37108;DHT22;23019;49.300;6.846;2022-09-30T05:39:34;21.30;99.90
37108;DHT22;23019;49.300;6.846;2022-09-30T05:41:45;21.50;99.90
37108;DHT22;23019;49.300;6.846;2022-09-30T05:43:48;22.50;99.90
37108;DHT22;23019;49.300;6.846;2022-09-30T05:45:53;25.90;99.90
37108;DHT22;23019;49.300;6.846;2022-09-30T05:48:01;34.10;99.90
37108;DHT22;23019;49.300;6.846;2022-09-30T05:50:07;45.40;99.90
37108;DHT22;23019;49.300;6.846;2022-09-30T05:52:36;53.00;99.90
37108;DHT22;23019;49.300;6.846;2022-09-30T05:54:42;55.80;99.90
37108;DHT22;23019;49.300;6.846;2022-09-30T05:56:45;55.10;99.90
37108;DHT22;23019;49.300;6.846;2022-09-30T05:58:58;53.30;99.90
37108;DHT22;23019;49.300;6.846;2022-09-30T06:01:04;51.60;99.90
37108;DHT22;23019;49.300;6.846;2022-09-30T06:03:10;52.80;99.90
37108;DHT22;23019;49.300;6.846;2022-09-30T06:05:13;56.00;99.90
37108;DHT22;23019;49.300;6.846;2022-09-30T06:07:14;56.90;99.90
37108;DHT22;23019;49.300;6.846;2022-09-30T06:09:18;56.60;99.90
37108;DHT22;23019;49.300;6.846;2022-09-30T06:11:21;55.60;99.90
37108;DHT22;23019;49.300;6.846;2022-09-30T06:13:29;54.30;99.90
37108;DHT22;23019;49.300;6.846;2022-09-30T06:15:35;52.90;99.90
37108;DHT22;23019;49.300;6.846;2022-09-30T06:17:51;51.70;99.90
37108;DHT22;23019;49.300;6.846;2022-09-30T06:20:04;50.90;99.90
37108;DHT22;23019;49.300;6.846;2022-09-30T06:25:38;54.70;99.90
37108;DHT22;23019;49.300;6.846;2022-09-30T06:27:48;55.60;99.90
37108;DHT22;23019;49.300;6.846;2022-09-30T06:33:16;54.40;99.90
37108;DHT22;23019;49.300;6.846;2022-09-30T06:35:16;53.40;99.90
37108;DHT22;23019;49.300;6.846;2022-09-30T06:37:18;52.90;99.90
37108;DHT22;23019;49.300;6.846;2022-09-30T06:39:22;53.00;99.90
37108;DHT22;23019;49.300;6.846;2022-09-30T06:41:23;53.20;99.90
37108;DHT22;23019;49.300;6.846;2022-09-30T06:43:28;53.40;99.90
37108;DHT22;23019;49.300;6.846;2022-09-30T06:45:31;53.60;99.90
37108;DHT22;23019;49.300;6.846;2022-09-30T06:50:57;53.70;99.90
37108;DHT22;23019;49.300;6.846;2022-09-30T06:53:03;53.70;99.90
37108;DHT22;23019;49.300;6.846;2022-09-30T06:55:43;53.70;99.90
37108;DHT22;23019;49.300;6.846;2022-09-30T06:58:27;53.70;99.90
37108;DHT22;23019;49.300;6.846;2022-09-30T07:00:30;53.60;99.90
37108;DHT22;23019;49.300;6.846;2022-09-30T07:02:31;53.50;99.90
37108;DHT22;23019;49.300;6.846;2022-09-30T07:04:33;53.40;99.90
37108;DHT22;23019;49.300;6.846;2022-09-30T07:06:35;53.30;99.90
37108;DHT22;23019;49.300;6.846;2022-09-30T07:08:39;53.30;99.90
37108;DHT22;23019;49.300;6.846;2022-09-30T07:10:40;53.20;99.90
37108;DHT22;23019;49.300;6.846;2022-09-30T07:12:40;53.10;99.90
37108;DHT22;23019;49.300;6.846;2022-09-30T07:14:41;52.90;99.90
37108;DHT22;23019;49.300;6.846;2022-09-30T07:16:42;52.80;99.90
37108;DHT22;23019;49.300;6.846;2022-09-30T07:18:45;52.70;99.90
37108;DHT22;23019;49.300;6.846;2022-09-30T07:20:53;52.60;99.90
37108;DHT22;23019;49.300;6.846;2022-09-30T07:22:54;52.40;99.90
37108;DHT22;23019;49.300;6.846;2022-09-30T07:24:56;52.30;99.90
37108;DHT22;23019;49.300;6.846;2022-09-30T07:26:57;52.10;99.90
37108;DHT22;23019;49.300;6.846;2022-09-30T07:28:58;51.90;99.90
37108;DHT22;23019;49.300;6.846;2022-09-30T07:31:01;51.70;99.90
37108;DHT22;23019;49.300;6.846;2022-09-30T07:33:05;51.50;99.90
37108;DHT22;23019;49.300;6.846;2022-09-30T07:35:06;51.40;99.90
37108;DHT22;23019;49.300;6.846;2022-09-30T07:37:07;51.10;99.90
37108;DHT22;23019;49.300;6.846;2022-09-30T07:39:09;51.00;99.90
37108;DHT22;23019;49.300;6.846;2022-09-30T07:41:16;50.80;99.90
37108;DHT22;23019;49.300;6.846;2022-09-30T07:43:17;50.60;99.90
37108;DHT22;23019;49.300;6.846;2022-09-30T07:45:18;50.50;99.90
37108;DHT22;23019;49.300;6.846;2022-09-30T07:47:19;50.20;99.90
37108;DHT22;23019;49.300;6.846;2022-09-30T07:49:20;50.10;99.90
37108;DHT22;23019;49.300;6.846;2022-09-30T07:51:35;49.90;99.90
37108;DHT22;23019;49.300;6.846;2022-09-30T07:53:36;49.70;99.90
37108;DHT22;23019;49.300;6.846;2022-09-30T07:55:37;49.60;99.90
37108;DHT22;23019;49.300;6.846;2022-09-30T07:57:37;49.40;99.90
37108;DHT22;23019;49.300;6.846;2022-09-30T07:59:40;49.20;99.90
37108;DHT22;23019;49.300;6.846;2022-09-30T08:01:41;49.10;99.90
37108;DHT22;23019;49.300;6.846;2022-09-30T08:03:42;49.00;99.90
37108;DHT22;23019;49.300;6.846;2022-09-30T08:05:44;48.90;99.90
37108;DHT22;23019;49.300;6.846;2022-09-30T08:07:45;48.70;99.90
37108;DHT22;23019;49.300;6.846;2022-09-30T08:09:45;48.60;99.90
37108;DHT22;23019;49.300;6.846;2022-09-30T08:11:46;48.60;99.90
37108;DHT22;23019;49.300;6.846;2022-09-30T08:13:51;48.40;99.90
37108;DHT22;23019;49.300;6.846;2022-09-30T08:15:52;48.30;99.90
37108;DHT22;23019;49.300;6.846;2022-09-30T08:17:53;48.20;99.90
37108;DHT22;23019;49.300;6.846;2022-09-30T08:19:54;48.10;99.90
37108;DHT22;23019;49.300;6.846;2022-09-30T08:21:55;48.00;99.90
37108;DHT22;23019;49.300;6.846;2022-09-30T08:23:56;47.80;99.90
37108;DHT22;23019;49.300;6.846;2022-09-30T08:26:15;47.70;99.90
37108;DHT22;23019;49.300;6.846;2022-09-30T08:28:16;47.60;99.90
37108;DHT22;23019;49.300;6.846;2022-09-30T08:30:18;47.50;99.90
37108;DHT22;23019;49.300;6.846;2022-09-30T08:32:18;47.40;99.90
37108;DHT22;23019;49.300;6.846;2022-09-30T08:34:19;47.20;99.90
37108;DHT22;23019;49.300;6.846;2022-09-30T08:36:22;47.20;99.90
37108;DHT22;23019;49.300;6.846;2022-09-30T08:38:23;47.00;99.90
37108;DHT22;23019;49.300;6.846;2022-09-30T08:40:27;46.90;99.90
37108;DHT22;23019;49.300;6.846;2022-09-30T08:42:45;46.80;99.90
37108;DHT22;23019;49.300;6.846;2022-09-30T08:44:47;46.60;99.90
37108;DHT22;23019;49.300;6.846;2022-09-30T08:49:32;46.30;99.90
37108;DHT22;23019;49.300;6.846;2022-09-30T08:51:43;46.10;99.90
37108;DHT22;23019;49.300;6.846;2022-09-30T08:53:45;45.90;99.90
37108;DHT22;23019;49.300;6.846;2022-09-30T08:55:46;45.80;99.90
37108;DHT22;23019;49.300;6.846;2022-09-30T08:57:47;45.70;99.90
37108;DHT22;23019;49.300;6.846;2022-09-30T08:59:53;45.60;99.90
37108;DHT22;23019;49.300;6.846;2022-09-30T09:02:01;45.40;99.90
37108;DHT22;23019;49.300;6.846;2022-09-30T09:04:11;45.20;99.90
37108;DHT22;23019;49.300;6.846;2022-09-30T09:10:41;44.80;99.90
37108;DHT22;23019;49.300;6.846;2022-09-30T09:13:08;44.60;99.90
37108;DHT22;23019;49.300;6.846;2022-09-30T09:20:17;44.00;99.90
37108;DHT22;23019;49.300;6.846;2022-09-30T09:22:26;43.90;99.90
37108;DHT22;23019;49.300;6.846;2022-09-30T10:14:29;40.80;99.90
37108;DHT22;23019;49.300;6.846;2022-09-30T10:16:35;40.60;99.90
37108;DHT22;23019;49.300;6.846;2022-09-30T10:18:37;40.50;99.90
37108;DHT22;23019;49.300;6.846;2022-09-30T10:23:50;40.20;99.90
37108;DHT22;23019;49.300;6.846;2022-09-30T10:31:43;39.80;99.90
37108;DHT22;23019;49.300;6.846;2022-09-30T10:36:32;39.50;99.90
37108;DHT22;23019;49.300;6.846;2022-09-30T10:38:44;39.30;99.90
37108;DHT22;23019;49.300;6.846;2022-09-30T10:40:49;39.20;99.90
37108;DHT22;23019;49.300;6.846;2022-09-30T10:42:53;39.20;99.90
37108;DHT22;23019;49.300;6.846;2022-09-30T10:44:56;39.00;99.90
37108;DHT22;23019;49.300;6.846;2022-09-30T10:46:59;39.00;99.90
37108;DHT22;23019;49.300;6.846;2022-09-30T10:51:39;38.80;99.90
37108;DHT22;23019;49.300;6.846;2022-09-30T10:53:41;38.70;99.90
37108;DHT22;23019;49.300;6.846;2022-09-30T11:09:28;38.10;99.90
37108;DHT22;23019;49.300;6.846;2022-09-30T11:35:43;36.80;99.90
37108;DHT22;23019;49.300;6.846;2022-09-30T13:01:27;32.70;99.90
37108;DHT22;23019;49.300;6.846;2022-09-30T13:03:47;32.60;99.90
37108;DHT22;23019;49.300;6.846;2022-09-30T13:37:39;31.30;99.90
37108;DHT22;23019;49.300;6.846;2022-09-30T13:40:19;31.20;99.90
37108;DHT22;23019;49.300;6.846;2022-09-30T15:02:03;28.80;99.90
37108;DHT22;23019;49.300;6.846;2022-09-30T15:04:15;28.70;99.90
37108;DHT22;23019;49.300;6.846;2022-09-30T15:06:23;28.70;99.90
37108;DHT22;23019;49.300;6.846;2022-09-30T15:08:40;28.70;99.90
37108;DHT22;23019;49.300;6.846;2022-09-30T15:10:56;28.60;99.90
37108;DHT22;23019;49.300;6.846;2022-09-30T15:13:12;28.50;99.90
37108;DHT22;23019;49.300;6.846;2022-09-30T15:15:44;28.50;99.90
37108;DHT22;23019;49.300;6.846;2022-09-30T15:17:57;28.40;99.90
37108;DHT22;23019;49.300;6.846;2022-09-30T15:20:25;28.30;99.90
37108;DHT22;23019;49.300;6.846;2022-09-30T15:23:00;28.30;99.90
37108;DHT22;23019;49.300;6.846;2022-09-30T15:25:11;28.20;99.90
37108;DHT22;23019;49.300;6.846;2022-09-30T15:27:31;28.20;99.90
37108;DHT22;23019;49.300;6.846;2022-09-30T15:30:03;28.10;99.90
37108;DHT22;23019;49.300;6.846;2022-09-30T15:32:14;28.10;99.90
37108;DHT22;23019;49.300;6.846;2022-09-30T15:34:29;28.00;99.90
37108;DHT22;23019;49.300;6.846;2022-09-30T15:36:35;27.90;99.90
37108;DHT22;23019;49.300;6.846;2022-09-30T15:39:27;27.90;99.90
37108;DHT22;23019;49.300;6.846;2022-09-30T15:41:47;27.80;99.90
37108;DHT22;23019;49.300;6.846;2022-09-30T15:43:50;27.70;99.90
37108;DHT22;23019;49.300;6.846;2022-09-30T15:45:53;27.70;99.90
37108;DHT22;23019;49.300;6.846;2022-09-30T15:48:00;27.70;99.90
37108;DHT22;23019;49.300;6.846;2022-09-30T15:53:20;27.60;99.90
37108;DHT22;23019;49.300;6.846;2022-09-30T15:55:40;27.50;99.90
37108;DHT22;23019;49.300;6.846;2022-09-30T15:57:49;27.40;99.90
37108;DHT22;23019;49.300;6.846;2022-09-30T16:00:01;27.40;99.90
37108;DHT22;23019;49.300;6.846;2022-09-30T16:02:11;27.40;99.90
37108;DHT22;23019;49.300;6.846;2022-09-30T16:07:05;27.30;99.90
37108;DHT22;23019;49.300;6.846;2022-09-30T16:09:36;27.20;99.90
37108;DHT22;23019;49.300;6.846;2022-09-30T16:11:42;27.20;99.90
37108;DHT22;23019;49.300;6.846;2022-09-30T16:14:10;27.20;99.90
37108;DHT22;23019;49.300;6.846;2022-09-30T16:16:30;27.10;99.90
37108;DHT22;23019;49.300;6.846;2022-09-30T16:18:42;27.10;99.90
37108;DHT22;23019;49.300;6.846;2022-09-30T16:21:04;27.00;99.90
37108;DHT22;23019;49.300;6.846;2022-09-30T16:24:11;26.90;99.90
37108;DHT22;23019;49.300;6.846;2022-09-30T16:26:26;26.90;99.90
37108;DHT22;23019;49.300;6.846;2022-09-30T16:28:40;26.90;99.90
37108;DHT22;23019;49.300;6.846;2022-09-30T16:30:56;26.80;99.90
37108;DHT22;23019;49.300;6.846;2022-09-30T16:33:16;26.80;99.90
37108;DHT22;23019;49.300;6.846;2022-09-30T16:35:36;26.80;99.90
37108;DHT22;23019;49.300;6.846;2022-09-30T16:37:43;26.70;99.90
37108;DHT22;23019;49.300;6.846;2022-09-30T16:39:46;26.70;99.90
37108;DHT22;23019;49.300;6.846;2022-09-30T16:41:52;26.70;99.90
37108;DHT22;23019;49.300;6.846;2022-09-30T16:43:54;26.60;99.90
37108;DHT22;23019;49.300;6.846;2022-09-30T16:45:58;26.60;99.90
37108;DHT22;23019;49.300;6.846;2022-09-30T16:48:00;26.60;99.90
37108;DHT22;23019;49.300;6.846;2022-09-30T16:50:40;26.50;99.90
37108;DHT22;23019;49.300;6.846;2022-09-30T16:52:42;26.50;99.90
37108;DHT22;23019;49.300;6.846;2022-09-30T16:54:43;26.40;99.90
37108;DHT22;23019;49.300;6.846;2022-09-30T16:56:43;26.40;99.90
37108;DHT22;23019;49.300;6.846;2022-09-30T16:58:45;26.40;99.90
37108;DHT22;23019;49.300;6.846;2022-09-30T17:00:48;26.30;99.90
37108;DHT22;23019;49.300;6.846;2022-09-30T17:02:49;26.30;99.90
37108;DHT22;23019;49.300;6.846;2022-09-30T17:04:52;26.30;99.90
37108;DHT22;23019;49.300;6.846;2022-09-30T17:06:55;26.30;99.90
37108;DHT22;23019;49.300;6.846;2022-09-30T17:08:59;26.20;99.90
37108;DHT22;23019;49.300;6.846;2022-09-30T17:11:03;26.20;99.90
37108;DHT22;23019;49.300;6.846;2022-09-30T17:13:06;26.20;99.90
37108;DHT22;23019;49.300;6.846;2022-09-30T17:15:07;26.10;99.90
37108;DHT22;23019;49.300;6.846;2022-09-30T17:17:11;26.10;99.90
37108;DHT22;23019;49.300;6.846;2022-09-30T17:19:11;26.10;99.90
37108;DHT22;23019;49.300;6.846;2022-09-30T17:21:16;26.10;99.90
37108;DHT22;23019;49.300;6.846;2022-09-30T17:23:18;26.00;99.90
37108;DHT22;23019;49.300;6.846;2022-09-30T17:25:19;26.00;99.90
37108;DHT22;23019;49.300;6.846;2022-09-30T17:27:20;25.90;99.90
37108;DHT22;23019;49.300;6.846;2022-09-30T17:29:24;25.90;99.90
37108;DHT22;23019;49.300;6.846;2022-09-30T17:31:27;25.90;99.90
37108;DHT22;23019;49.300;6.846;2022-09-30T17:33:36;25.90;99.90
37108;DHT22;23019;49.300;6.846;2022-09-30T17:35:40;25.80;99.90
37108;DHT22;23019;49.300;6.846;2022-09-30T17:37:44;25.80;99.90
37108;DHT22;23019;49.300;6.846;2022-09-30T17:39:45;25.80;99.90
37108;DHT22;23019;49.300;6.846;2022-09-30T17:41:45;25.80;99.90
37108;DHT22;23019;49.300;6.846;2022-09-30T17:44:04;25.70;99.90
37108;DHT22;23019;49.300;6.846;2022-09-30T17:46:05;25.70;99.90
37108;DHT22;23019;49.300;6.846;2022-09-30T17:48:06;25.70;99.90
37108;DHT22;23019;49.300;6.846;2022-09-30T17:50:08;25.60;99.90
37108;DHT22;23019;49.300;6.846;2022-09-30T17:52:09;25.60;99.90
37108;DHT22;23019;49.300;6.846;2022-09-30T17:54:13;25.60;99.90
37108;DHT22;23019;49.300;6.846;2022-09-30T17:56:19;25.60;99.90
37108;DHT22;23019;49.300;6.846;2022-09-30T17:58:21;25.50;99.90
37108;DHT22;23019;49.300;6.846;2022-09-30T18:00:26;25.50;99.90
37108;DHT22;23019;49.300;6.846;2022-09-30T18:02:29;25.50;99.90
37108;DHT22;23019;49.300;6.846;2022-09-30T18:04:31;25.50;99.90
37108;DHT22;23019;49.300;6.846;2022-09-30T18:06:32;25.40;99.90
37108;DHT22;23019;49.300;6.846;2022-09-30T18:08:33;25.40;99.90
37108;DHT22;23019;49.300;6.846;2022-09-30T18:10:35;25.40;99.90
37108;DHT22;23019;49.300;6.846;2022-09-30T18:12:37;25.30;99.90
37108;DHT22;23019;49.300;6.846;2022-09-30T18:14:38;25.30;99.90
37108;DHT22;23019;49.300;6.846;2022-09-30T18:16:39;25.30;99.90
37108;DHT22;23019;49.300;6.846;2022-09-30T18:18:40;25.30;99.90
37108;DHT22;23019;49.300;6.846;2022-09-30T18:20:45;25.30;99.90
37108;DHT22;23019;49.300;6.846;2022-09-30T18:22:47;25.20;99.90
37108;DHT22;23019;49.300;6.846;2022-09-30T18:24:50;25.20;99.90
37108;DHT22;23019;49.300;6.846;2022-09-30T18:27:15;25.20;99.90
37108;DHT22;23019;49.300;6.846;2022-09-30T18:29:15;25.10;99.90
37108;DHT22;23019;49.300;6.846;2022-09-30T18:31:16;25.10;99.90
37108;DHT22;23019;49.300;6.846;2022-09-30T18:33:27;25.10;99.90
37108;DHT22;23019;49.300;6.846;2022-09-30T18:35:28;25.10;99.90
37108;DHT22;23019;49.300;6.846;2022-09-30T18:37:29;25.00;99.90
37108;DHT22;23019;49.300;6.846;2022-09-30T18:39:33;25.00;99.90
37108;DHT22;23019;49.300;6.846;2022-09-30T18:41:35;25.00;99.90
37108;DHT22;23019;49.300;6.846;2022-09-30T18:43:37;25.00;99.90
37108;DHT22;23019;49.300;6.846;2022-09-30T18:45:39;24.90;99.90
37108;DHT22;23019;49.300;6.846;2022-09-30T18:47:42;24.90;99.90
37108;DHT22;23019;49.300;6.846;2022-09-30T18:49:44;24.90;99.90
37108;DHT22;23019;49.300;6.846;2022-09-30T18:51:44;24.90;99.90
37108;DHT22;23019;49.300;6.846;2022-09-30T18:53:50;24.80;99.90
37108;DHT22;23019;49.300;6.846;2022-09-30T18:55:50;24.80;99.90
37108;DHT22;23019;49.300;6.846;2022-09-30T18:57:54;24.80;99.90
37108;DHT22;23019;49.300;6.846;2022-09-30T18:59:57;24.80;99.90
37108;DHT22;23019;49.300;6.846;2022-09-30T19:02:01;24.70;99.90
37108;DHT22;23019;49.300;6.846;2022-09-30T19:04:05;24.70;99.90
37108;DHT22;23019;49.300;6.846;2022-09-30T19:06:08;24.70;99.90
37108;DHT22;23019;49.300;6.846;2022-09-30T19:08:08;24.60;99.90
37108;DHT22;23019;49.300;6.846;2022-09-30T19:10:10;24.70;99.90
37108;DHT22;23019;49.300;6.846;2022-09-30T19:12:13;24.60;99.90
37108;DHT22;23019;49.300;6.846;2022-09-30T19:14:17;24.60;99.90
37108;DHT22;23019;49.300;6.846;2022-09-30T19:16:18;24.60;99.90
37108;DHT22;23019;49.300;6.846;2022-09-30T19:18:21;24.60;99.90
37108;DHT22;23019;49.300;6.846;2022-09-30T19:20:26;24.60;99.90
37108;DHT22;23019;49.300;6.846;2022-09-30T19:22:29;24.50;99.90
37108;DHT22;23019;49.300;6.846;2022-09-30T19:24:32;24.50;99.90
37108;DHT22;23019;49.300;6.846;2022-09-30T19:26:35;24.50;99.90
37108;DHT22;23019;49.300;6.846;2022-09-30T19:28:36;24.50;99.90
37108;DHT22;23019;49.300;6.846;2022-09-30T19:30:37;24.40;99.90
37108;DHT22;23019;49.300;6.846;2022-09-30T19:32:41;24.40;99.90
37108;DHT22;23019;49.300;6.846;2022-09-30T19:34:42;24.40;99.90
37108;DHT22;23019;49.300;6.846;2022-09-30T19:36:43;24.40;99.90
37108;DHT22;23019;49.300;6.846;2022-09-30T19:38:46;24.40;99.90
37108;DHT22;23019;49.300;6.846;2022-09-30T19:41:10;24.30;99.90
37108;DHT22;23019;49.300;6.846;2022-09-30T19:43:12;24.30;99.90
37108;DHT22;23019;49.300;6.846;2022-09-30T19:45:12;24.30;99.90
37108;DHT22;23019;49.300;6.846;2022-09-30T19:47:15;24.30;99.90
37108;DHT22;23019;49.300;6.846;2022-09-30T19:49:22;24.30;99.90
37108;DHT22;23019;49.300;6.846;2022-09-30T19:51:23;24.30;99.90
37108;DHT22;23019;49.300;6.846;2022-09-30T19:53:24;24.20;99.90
37108;DHT22;23019;49.300;6.846;2022-09-30T19:55:29;24.20;99.90
37108;DHT22;23019;49.300;6.846;2022-09-30T19:57:32;24.20;99.90
37108;DHT22;23019;49.300;6.846;2022-09-30T19:59:38;24.20;99.90
37108;DHT22;23019;49.300;6.846;2022-09-30T20:01:39;24.20;99.90
37108;DHT22;23019;49.300;6.846;2022-09-30T20:03:42;24.10;99.90
37108;DHT22;23019;49.300;6.846;2022-09-30T20:05:43;24.10;99.90
37108;DHT22;23019;49.300;6.846;2022-09-30T20:07:45;24.10;99.90
37108;DHT22;23019;49.300;6.846;2022-09-30T20:09:53;24.10;99.90
37108;DHT22;23019;49.300;6.846;2022-09-30T20:11:54;24.00;99.90
37108;DHT22;23019;49.300;6.846;2022-09-30T20:13:58;24.00;99.90
37108;DHT22;23019;49.300;6.846;2022-09-30T20:16:18;24.00;99.90
37108;DHT22;23019;49.300;6.846;2022-09-30T20:18:21;24.00;99.90
37108;DHT22;23019;49.300;6.846;2022-09-30T20:20:25;24.00;99.90
37108;DHT22;23019;49.300;6.846;2022-09-30T20:22:36;24.00;99.90
37108;DHT22;23019;49.300;6.846;2022-09-30T20:24:36;23.90;99.90
37108;DHT22;23019;49.300;6.846;2022-09-30T20:26:42;23.90;99.90
37108;DHT22;23019;49.300;6.846;2022-09-30T20:28:43;23.90;99.90
37108;DHT22;23019;49.300;6.846;2022-09-30T20:30:44;23.90;99.90
37108;DHT22;23019;49.300;6.846;2022-09-30T20:32:48;23.80;99.90
37108;DHT22;23019;49.300;6.846;2022-09-30T20:34:48;23.80;99.90
37108;DHT22;23019;49.300;6.846;2022-09-30T20:36:51;23.80;99.90
37108;DHT22;23019;49.300;6.846;2022-09-30T20:38:55;23.80;99.90
37108;DHT22;23019;49.300;6.846;2022-09-30T20:41:02;23.80;99.90
37108;DHT22;23019;49.300;6.846;2022-09-30T20:43:03;23.80;99.90
37108;DHT22;23019;49.300;6.846;2022-09-30T20:45:07;23.70;99.90
37108;DHT22;23019;49.300;6.846;2022-09-30T20:47:12;23.70;99.90
37108;DHT22;23019;49.300;6.846;2022-09-30T20:49:12;23.70;99.90
37108;DHT22;23019;49.300;6.846;2022-09-30T20:51:18;23.70;99.90
37108;DHT22;23019;49.300;6.846;2022-09-30T20:53:19;23.70;99.90
37108;DHT22;23019;49.300;6.846;2022-09-30T20:55:22;23.70;99.90
37108;DHT22;23019;49.300;6.846;2022-09-30T20:57:23;23.70;99.90
37108;DHT22;23019;49.300;6.846;2022-09-30T20:59:24;23.60;99.90
37108;DHT22;23019;49.300;6.846;2022-09-30T21:01:25;23.60;99.90
37108;DHT22;23019;49.300;6.846;2022-09-30T21:03:26;23.60;99.90
37108;DHT22;23019;49.300;6.846;2022-09-30T21:05:26;23.60;99.90
37108;DHT22;23019;49.300;6.846;2022-09-30T21:07:30;23.60;99.90
37108;DHT22;23019;49.300;6.846;2022-09-30T21:09:31;23.50;99.90
37108;DHT22;23019;49.300;6.846;2022-09-30T21:11:36;23.50;99.90
37108;DHT22;23019;49.300;6.846;2022-09-30T21:13:45;23.50;99.90
37108;DHT22;23019;49.300;6.846;2022-09-30T21:15:57;23.50;99.90
37108;DHT22;23019;49.300;6.846;2022-09-30T21:17:59;23.50;99.90
37108;DHT22;23019;49.300;6.846;2022-09-30T21:20:00;23.50;99.90
37108;DHT22;23019;49.300;6.846;2022-09-30T21:22:03;23.50;99.90
37108;DHT22;23019;49.300;6.846;2022-09-30T21:24:04;23.50;99.90